Time;durP1;ratioP1;P1;durP2;ratioP2;P2;SDS_P1;SDS_P2;PMS_P1;PMS_P2;Temp;Humidity;BMP_temperature;BMP_pressure;BME280_temperature;BME280_humidity;BME280_pressure;Samples;Min_cycle;Max_cycle;Signal;HPM_P1;HPM_P2
2024/01/15 00:01:03;;;;;;;43.00;26.30;;;;;;;-2.08;100.00;99682.73;106342;1251;60537;-75
2024/01/15 00:03:31;;;;;;;39.10;24.70;;;;;;;-2.05;100.00;99686.11;106015;1251;60326;-78
2024/01/15 00:05:58;;;;;;;39.40;24.60;;;;;;;-2.02;100.00;99691.67;105817;1256;71905;-78
2024/01/15 00:08:25;;;;;;;40.60;24.30;;;;;;;-1.99;100.00;99699.83;105999;1256;63897;-80
2024/01/15 00:10:52;;;;;;;37.80;23.00;;;;;;;-1.96;100.00;99705.24;105998;1251;72711;-77
2024/01/15 00:13:19;;;;;;;40.80;23.70;;;;;;;-1.93;100.00;99704.81;105918;1256;61992;-76
2024/01/15 00:15:46;;;;;;;40.60;23.10;;;;;;;-1.90;100.00;99708.17;105802;1252;60133;-78
2024/01/15 00:18:13;;;;;;;37.40;22.60;;;;;;;-1.85;100.00;99712.88;105839;1258;70557;-79
2024/01/15 00:20:41;;;;;;;33.20;21.80;;;;;;;-1.80;100.00;99715.50;105834;1251;63951;-77
2024/01/15 00:23:08;;;;;;;32.50;20.50;;;;;;;-1.78;100.00;99717.30;105960;1257;72424;-79
2024/01/15 00:25:35;;;;;;;34.80;20.00;;;;;;;-1.76;100.00;99727.88;105859;1256;61175;-78
2024/01/15 00:28:02;;;;;;;32.20;20.90;;;;;;;-1.74;100.00;99727.33;105925;1256;59551;-77
2024/01/15 00:30:29;;;;;;;34.70;20.60;;;;;;;-1.73;100.00;99725.77;105823;1255;72924;-78
2024/01/15 00:32:56;;;;;;;35.20;21.80;;;;;;;-1.73;100.00;99724.06;105940;1255;63906;-78
2024/01/15 00:35:22;;;;;;;32.90;21.20;;;;;;;-1.75;100.00;99727.17;105891;1256;72471;-79
2024/01/15 00:37:49;;;;;;;34.00;21.70;;;;;;;-1.79;100.00;99727.63;105640;1255;59650;-80
2024/01/15 00:40:16;;;;;;;35.60;22.40;;;;;;;-1.88;100.00;99730.57;105890;1251;60367;-78
2024/01/15 00:42:43;;;;;;;39.80;22.50;;;;;;;-1.97;100.00;99741.75;105834;1252;71709;-79
2024/01/15 00:45:09;;;;;;;37.40;22.80;;;;;;;-2.09;100.00;99740.12;105806;1257;62395;-79
2024/01/15 00:47:37;;;;;;;38.50;21.20;;;;;;;-2.19;100.00;99735.56;105757;1257;72657;-78
2024/01/15 00:50:04;;;;;;;39.80;23.20;;;;;;;-2.28;100.00;99736.96;105911;1256;62028;-78
2024/01/15 00:52:31;;;;;;;36.70;22.40;;;;;;;-2.37;100.00;99743.14;105819;1251;60291;-79
2024/01/15 00:54:58;;;;;;;37.40;21.40;;;;;;;-2.44;100.00;99741.91;105668;1251;71630;-78
2024/01/15 00:57:25;;;;;;;36.10;20.50;;;;;;;-2.48;100.00;99739.61;105801;1256;63758;-77
2024/01/15 00:59:53;;;;;;;36.70;21.20;;;;;;;-2.54;100.00;99729.45;105731;1256;72641;-76
2024/01/15 01:02:20;;;;;;;36.80;22.00;;;;;;;-2.59;100.00;99732.48;105791;1256;60461;-78
2024/01/15 01:04:46;;;;;;;37.80;19.90;;;;;;;-2.65;100.00;99732.95;105759;1256;59746;-79
2024/01/15 01:07:14;;;;;;;32.90;19.30;;;;;;;-2.71;100.00;99734.09;105754;1251;72989;-77
2024/01/15 01:09:40;;;;;;;40.90;23.00;;;;;;;-2.78;100.00;99739.52;105868;1257;63883;-77
2024/01/15 01:12:09;;;;;;;36.80;22.00;;;;;;;-2.86;100.00;99747.72;105945;1251;71153;-79
2024/01/15 01:14:35;;;;;;;35.40;20.10;;;;;;;-2.94;100.00;99749.25;105927;1256;61980;-77
2024/01/15 01:17:02;;;;;;;38.50;20.60;;;;;;;-3.01;100.00;99750.06;105754;1256;60184;-77
2024/01/15 01:19:30;;;;;;;40.20;22.00;;;;;;;-3.07;100.00;99758.21;105728;1251;73069;-77
2024/01/15 01:21:57;;;;;;;38.40;22.10;;;;;;;-3.14;100.00;99756.61;105645;1257;62371;-77
2024/01/15 01:24:25;;;;;;;40.20;19.90;;;;;;;-3.19;100.00;99759.10;105718;1256;72621;-77
2024/01/15 01:26:52;;;;;;;36.40;20.80;;;;;;;-3.22;100.00;99765.65;105852;1256;62076;-77
2024/01/15 01:29:18;;;;;;;33.20;19.80;;;;;;;-3.26;100.00;99768.63;105752;1251;60283;-78
2024/01/15 01:31:45;;;;;;;34.80;20.10;;;;;;;-3.31;100.00;99773.50;105700;1251;72880;-77
2024/01/15 01:34:14;;;;;;;33.10;18.70;;;;;;;-3.35;100.00;99779.20;105752;1255;63781;-78
2024/01/15 01:36:42;;;;;;;33.80;18.70;;;;;;;-3.39;100.00;99780.46;105735;1251;72678;-77
2024/01/15 01:39:09;;;;;;;35.10;20.80;;;;;;;-3.42;100.00;99782.05;105769;1251;60462;-76
2024/01/15 01:41:38;;;;;;;35.30;20.40;;;;;;;-3.45;100.00;99782.80;105830;1255;60518;-78
2024/01/15 01:44:05;;;;;;;36.20;20.00;;;;;;;-3.50;100.00;99786.13;105914;1251;73835;-77
2024/01/15 01:46:32;;;;;;;40.50;21.40;;;;;;;-3.59;100.00;99794.96;105792;1256;63941;-77
2024/01/15 01:49:03;;;;;;;32.90;19.60;;;;;;;-3.68;100.00;99794.43;105792;1251;71738;-77
2024/01/15 01:51:30;;;;;;;34.40;19.20;;;;;;;-3.77;100.00;99803.27;105788;1255;61011;-78
2024/01/15 01:53:58;;;;;;;37.50;21.00;;;;;;;-3.82;100.00;99801.63;105897;1257;60442;-79
2024/01/15 01:56:25;;;;;;;37.80;20.20;;;;;;;-3.84;100.00;99790.73;105736;1256;73722;-78
2024/01/15 01:58:52;;;;;;;37.00;23.10;;;;;;;-3.89;100.00;99785.00;105642;1257;62305;-78
2024/01/15 02:01:19;;;;;;;37.10;20.80;;;;;;;-3.95;100.00;99777.73;105895;1251;72669;-77
2024/01/15 02:03:46;;;;;;;39.90;21.60;;;;;;;-4.00;100.00;99781.41;105812;1253;60505;-77
2024/01/15 02:06:13;;;;;;;36.10;20.50;;;;;;;-4.04;100.00;99780.77;105748;1251;60310;-78
2024/01/15 02:08:40;;;;;;;34.40;21.10;;;;;;;-4.05;100.00;99792.90;105730;1251;72586;-76
2024/01/15 02:11:07;;;;;;;37.40;22.00;;;;;;;-4.05;100.00;99799.05;105639;1252;63648;-79
2024/01/15 02:13:34;;;;;;;38.80;23.10;;;;;;;-4.04;100.00;99808.08;105859;1256;72417;-76
2024/01/15 02:16:01;;;;;;;41.60;22.20;;;;;;;-4.02;100.00;99808.40;105800;1257;60544;-76
2024/01/15 02:18:28;;;;;;;38.10;22.20;;;;;;;-4.02;100.00;99806.36;105816;1251;60540;-77
2024/01/15 02:20:55;;;;;;;42.60;22.80;;;;;;;-4.03;100.00;99802.45;105804;1256;73837;-77
2024/01/15 02:23:23;;;;;;;37.90;22.80;;;;;;;-4.07;100.00;99801.13;105862;1257;62339;-80
2024/01/15 02:25:49;;;;;;;40.60;23.90;;;;;;;-4.10;100.00;99800.66;106003;1251;72728;-78
2024/01/15 02:28:17;;;;;;;45.40;23.60;;;;;;;-4.12;100.00;99804.96;105796;1253;61895;-78
2024/01/15 02:30:44;;;;;;;42.60;22.40;;;;;;;-4.15;100.00;99807.04;105824;1251;60405;-77
2024/01/15 02:33:12;;;;;;;41.60;24.80;;;;;;;-4.16;100.00;99807.73;105836;1251;72252;-80
2024/01/15 02:35:39;;;;;;;42.60;24.10;;;;;;;-4.17;100.00;99808.77;105838;1251;63791;-76
2024/01/15 02:38:06;;;;;;;41.70;22.10;;;;;;;-4.18;100.00;99808.95;105908;1251;71154;-78
2024/01/15 02:40:33;;;;;;;37.90;22.60;;;;;;;-4.20;100.00;99808.13;105747;1256;60538;-78
2024/01/15 02:43:02;;;;;;;39.70;21.20;;;;;;;-4.22;100.00;99807.65;106018;1251;60467;-78
2024/01/15 02:45:29;;;;;;;50.60;25.90;;;;;;;-4.24;100.00;99810.58;105859;1256;73925;-77
2024/01/15 02:47:56;;;;;;;50.90;26.10;;;;;;;-4.25;100.00;99820.30;105727;1256;62338;-78
2024/01/15 02:50:23;;;;;;;49.20;23.50;;;;;;;-4.25;100.00;99820.81;105755;1251;72622;-77
2024/01/15 02:52:50;;;;;;;46.50;23.00;;;;;;;-4.26;100.00;99824.76;105929;1255;60889;-77
2024/01/15 02:55:17;;;;;;;42.70;24.50;;;;;;;-4.27;100.00;99833.13;105831;1251;60435;-79
2024/01/15 02:57:45;;;;;;;46.10;25.40;;;;;;;-4.26;100.00;99838.42;105755;1251;73873;-78
2024/01/15 03:00:12;;;;;;;49.40;26.50;;;;;;;-4.26;100.00;99835.35;105794;1251;63633;-79
2024/01/15 03:02:40;;;;;;;39.40;22.20;;;;;;;-4.23;100.00;99836.48;105868;1251;72554;-77
2024/01/15 03:05:10;;;;;;;39.40;23.40;;;;;;;-4.20;100.00;99835.09;106099;1255;61836;-76
2024/01/15 03:07:37;;;;;;;38.20;22.70;;;;;;;-4.17;100.00;99836.59;105964;1251;60447;-77
2024/01/15 03:10:05;;;;;;;39.00;22.30;;;;;;;-4.16;100.00;99839.64;105896;1251;72371;-78
2024/01/15 03:12:34;;;;;;;40.80;22.10;;;;;;;-4.15;100.00;99849.53;105973;1255;62353;-78
2024/01/15 03:15:01;;;;;;;40.00;22.20;;;;;;;-4.13;100.00;99852.41;105839;1251;70233;-79
2024/01/15 03:17:28;;;;;;;34.70;21.30;;;;;;;-4.11;100.00;99852.05;105818;1256;61961;-77
2024/01/15 03:19:55;;;;;;;41.70;23.70;;;;;;;-4.09;100.00;99854.06;105827;1255;60403;-79
2024/01/15 03:22:22;;;;;;;37.00;21.60;;;;;;;-4.08;100.00;99857.47;105757;1255;73751;-78
2024/01/15 03:24:50;;;;;;;44.10;23.30;;;;;;;-4.09;100.00;99859.86;105835;1256;63865;-76
2024/01/15 03:27:17;;;;;;;36.90;22.20;;;;;;;-4.11;100.00;99863.66;106343;1251;72651;-76
2024/01/15 03:29:45;;;;;;;40.80;23.50;;;;;;;-4.16;100.00;99861.15;105986;1251;60490;-77
2024/01/15 03:32:11;;;;;;;45.00;23.60;;;;;;;-4.20;100.00;99869.39;106053;1256;60431;-77
2024/01/15 03:34:38;;;;;;;41.40;24.40;;;;;;;-4.25;100.00;99873.55;105848;1251;73627;-80
2024/01/15 03:37:06;;;;;;;43.80;22.90;;;;;;;-4.29;100.00;99874.27;105893;1255;62829;-78
2024/01/15 03:39:32;;;;;;;42.50;23.50;;;;;;;-4.32;100.00;99871.92;105929;1251;72694;-78
2024/01/15 03:41:59;;;;;;;39.00;23.40;;;;;;;-4.36;100.00;99876.41;105877;1256;61884;-79
2024/01/15 03:44:26;;;;;;;44.40;24.50;;;;;;;-4.41;100.00;99874.05;106137;1251;60547;-77
2024/01/15 03:46:53;;;;;;;45.50;24.90;;;;;;;-4.45;100.00;99873.77;106409;1253;73867;-78
2024/01/15 03:49:19;;;;;;;44.10;22.50;;;;;;;-4.50;100.00;99871.94;105947;1255;63716;-76
2024/01/15 03:51:46;;;;;;;41.30;24.10;;;;;;;-4.55;100.00;99874.73;105894;1251;72560;-78
2024/01/15 03:54:14;;;;;;;42.40;24.50;;;;;;;-4.63;100.00;99877.20;105879;1255;60560;-79
2024/01/15 03:56:43;;;;;;;39.30;22.70;;;;;;;-4.70;100.00;99877.96;105800;1256;60309;-77
2024/01/15 03:59:09;;;;;;;42.60;24.50;;;;;;;-4.75;100.00;99871.69;105809;1251;71676;-78
2024/01/15 04:01:36;;;;;;;41.80;22.40;;;;;;;-4.78;100.00;99867.28;105806;1256;64348;-77
2024/01/15 04:04:04;;;;;;;40.00;24.00;;;;;;;-4.83;100.00;99870.40;105779;1251;72540;-79
2024/01/15 04:06:31;;;;;;;45.70;25.00;;;;;;;-4.90;100.00;99865.52;105876;1252;61017;-78
2024/01/15 04:08:58;;;;;;;42.50;24.80;;;;;;;-4.95;100.00;99868.47;105923;1251;60457;-79
2024/01/15 04:11:25;;;;;;;44.10;24.10;;;;;;;-4.99;100.00;99861.17;105835;1251;73776;-78
2024/01/15 04:13:52;;;;;;;43.10;24.70;;;;;;;-5.01;100.00;99865.45;105802;1255;63971;-78
2024/01/15 04:16:20;;;;;;;46.90;24.10;;;;;;;-5.03;100.00;99863.94;105804;1251;71552;-77
2024/01/15 04:18:47;;;;;;;46.80;25.70;;;;;;;-5.05;100.00;99875.02;105905;1255;61970;-79
2024/01/15 04:21:14;;;;;;;47.50;25.20;;;;;;;-5.04;100.00;99884.05;105914;1255;60496;-78
2024/01/15 04:23:41;;;;;;;43.80;25.00;;;;;;;-5.04;100.00;99891.38;105828;1251;73846;-79
2024/01/15 04:26:08;;;;;;;43.90;24.20;;;;;;;-5.06;100.00;99890.89;105775;1251;62429;-78
2024/01/15 04:28:36;;;;;;;46.50;23.90;;;;;;;-5.07;100.00;99892.60;105819;1251;72692;-79
2024/01/15 04:31:03;;;;;;;49.70;26.70;;;;;;;-5.08;100.00;99894.64;105858;1255;60506;-79
2024/01/15 04:33:29;;;;;;;44.90;23.80;;;;;;;-5.10;100.00;99895.85;105968;1251;60395;-79
2024/01/15 04:35:57;;;;;;;43.80;24.70;;;;;;;-5.16;100.00;99896.59;105930;1251;73709;-79
2024/01/15 04:38:24;;;;;;;44.10;23.30;;;;;;;-5.27;100.00;99896.49;105964;1256;62898;-78
2024/01/15 04:40:50;;;;;;;41.10;24.20;;;;;;;-5.38;100.00;99896.58;105906;1256;72448;-78
2024/01/15 04:43:17;;;;;;;42.50;23.60;;;;;;;-5.48;100.00;99896.64;105839;1255;60454;-77
2024/01/15 04:47:39;;;;;;;39.50;24.00;;;;;;;-5.60;100.00;99906.25;102554;1292;603833;-79
2024/01/15 04:50:07;;;;;;;47.60;25.70;;;;;;;-5.69;100.00;99914.82;104931;1270;60436;-78
2024/01/15 04:52:34;;;;;;;45.80;26.60;;;;;;;-5.74;100.00;99915.69;104855;1266;60482;-79
2024/01/15 04:55:00;;;;;;;46.50;24.60;;;;;;;-5.78;100.00;99917.94;104807;1267;70715;-77
2024/01/15 04:57:27;;;;;;;45.20;24.60;;;;;;;-5.81;100.00;99918.45;105318;1260;64034;-79
2024/01/15 04:59:54;;;;;;;43.50;24.90;;;;;;;-5.81;100.00;99918.95;105346;1261;175075;-77
2024/01/15 05:02:21;;;;;;;39.70;23.00;;;;;;;-5.79;100.00;99920.14;105596;1259;61978;-77
2024/01/15 05:04:49;;;;;;;39.10;22.20;;;;;;;-5.78;100.00;99919.63;105643;1259;59998;-78
2024/01/15 05:07:16;;;;;;;40.20;22.90;;;;;;;-5.75;100.00;99922.33;105704;1259;71238;-79
2024/01/15 05:09:43;;;;;;;38.30;22.70;;;;;;;-5.71;100.00;99922.31;105656;1259;63883;-80
2024/01/15 05:12:11;;;;;;;49.10;24.70;;;;;;;-5.66;100.00;99925.87;105781;1260;72654;-76
2024/01/15 05:14:38;;;;;;;46.00;23.70;;;;;;;-5.59;100.00;99933.83;105670;1259;59645;-78
2024/01/15 05:17:06;;;;;;;40.10;22.90;;;;;;;-5.51;100.00;99939.73;105864;1255;59641;-79
2024/01/15 05:19:38;;;;;;;37.00;21.10;;;;;;;-5.43;100.00;99935.61;105987;1253;72797;-78
2024/01/15 05:22:05;;;;;;;38.50;20.80;;;;;;;-5.34;100.00;99934.71;105934;1253;62538;-80
2024/01/15 05:24:32;;;;;;;42.00;23.10;;;;;;;-5.28;100.00;99935.69;105993;1255;72550;-80
2024/01/15 05:26:59;;;;;;;46.80;24.30;;;;;;;-5.23;100.00;99936.67;105805;1256;59695;-80
2024/01/15 05:29:26;;;;;;;39.70;22.70;;;;;;;-5.18;100.00;99935.62;105817;1254;59637;-80
2024/01/15 05:31:53;;;;;;;45.00;23.00;;;;;;;-5.12;100.00;99950.23;105724;1256;72841;-80
2024/01/15 05:34:20;;;;;;;41.10;23.60;;;;;;;-5.05;100.00;99958.02;105831;1254;63764;-81
2024/01/15 05:36:47;;;;;;;44.70;24.20;;;;;;;-5.00;100.00;99958.84;105807;1254;71486;-80
2024/01/15 05:39:15;;;;;;;43.40;22.00;;;;;;;-4.93;100.00;99953.51;105923;1253;60056;-80
2024/01/15 05:41:42;;;;;;;41.50;22.70;;;;;;;-4.83;100.00;99954.94;105966;1255;59734;-82
2024/01/15 05:44:10;;;;;;;38.80;21.50;;;;;;;-4.70;100.00;99950.41;105896;1255;72878;-79
2024/01/15 05:46:38;;;;;;;37.20;21.90;;;;;;;-4.60;100.00;99941.80;106072;1251;62256;-82
2024/01/15 05:49:05;;;;;;;43.10;23.20;;;;;;;-4.53;100.00;99938.33;106018;1255;71298;-79
2024/01/15 05:51:32;;;;;;;42.20;22.90;;;;;;;-4.44;100.00;99940.63;106047;1256;59820;-79
2024/01/15 05:53:59;;;;;;;42.60;23.50;;;;;;;-4.33;100.00;99936.42;105866;1252;60237;-80
2024/01/15 05:56:26;;;;;;;43.30;23.00;;;;;;;-4.22;100.00;99929.15;105945;1255;73015;-80
2024/01/15 05:58:53;;;;;;;46.10;25.20;;;;;;;-4.15;100.00;99934.02;105813;1256;63960;-78
2024/01/15 06:01:21;;;;;;;43.60;23.80;;;;;;;-4.06;100.00;99935.45;105838;1256;72678;-80
2024/01/15 06:03:48;;;;;;;43.90;24.80;;;;;;;-3.99;100.00;99934.00;105812;1253;60362;-80
2024/01/15 06:06:14;;;;;;;41.70;24.10;;;;;;;-3.93;100.00;99936.83;105761;1251;60382;-80
2024/01/15 06:08:42;;;;;;;43.10;24.60;;;;;;;-3.85;100.00;99959.27;105880;1251;71635;-79
2024/01/15 06:11:08;;;;;;;37.20;22.80;;;;;;;-3.77;100.00;99968.74;105861;1251;62434;-81
2024/01/15 06:13:36;;;;;;;39.70;22.60;;;;;;;-3.69;100.00;99963.53;105977;1251;72588;-81
2024/01/15 06:16:07;;;;;;;40.80;22.00;;;;;;;-3.70;100.00;99961.33;105959;1251;59898;-79
2024/01/15 06:18:36;;;;;;;38.30;22.00;;;;;;;-3.72;100.00;99959.30;105706;1256;60746;-79
2024/01/15 06:21:03;;;;;;;37.70;23.90;;;;;;;-3.73;100.00;99959.48;105862;1251;71997;-80
2024/01/15 06:23:30;;;;;;;38.60;23.30;;;;;;;-3.77;100.00;99965.49;105982;1255;63874;-78
2024/01/15 06:25:57;;;;;;;35.20;20.60;;;;;;;-3.82;100.00;99967.44;105905;1252;72535;-80
2024/01/15 06:28:24;;;;;;;40.20;22.50;;;;;;;-3.87;100.00;99962.38;105961;1255;60462;-80
2024/01/15 06:30:52;;;;;;;42.10;24.40;;;;;;;-3.96;100.00;99967.94;105996;1253;60121;-79
2024/01/15 06:33:19;;;;;;;34.80;20.80;;;;;;;-4.03;100.00;99972.63;105914;1251;71725;-79
2024/01/15 06:35:47;;;;;;;37.60;22.00;;;;;;;-4.09;100.00;99968.44;105973;1255;63769;-81
2024/01/15 06:38:14;;;;;;;38.70;22.40;;;;;;;-4.14;100.00;99973.60;105823;1256;72632;-79
2024/01/15 06:40:45;;;;;;;41.30;20.20;;;;;;;-4.19;100.00;99972.80;105883;1255;60525;-81
2024/01/15 06:43:13;;;;;;;38.60;21.50;;;;;;;-4.20;100.00;99968.72;105964;1251;60440;-80
2024/01/15 06:45:40;;;;;;;36.90;22.20;;;;;;;-4.19;100.00;99970.76;105781;1255;72903;-80
2024/01/15 06:48:07;;;;;;;35.80;20.50;;;;;;;-4.17;100.00;99976.19;105943;1256;63924;-80
2024/01/15 06:50:34;;;;;;;34.30;20.10;;;;;;;-4.14;100.00;99976.67;105960;1256;72575;-79
2024/01/15 06:53:01;;;;;;;37.90;20.00;;;;;;;-4.09;100.00;99980.55;106322;1252;60205;-79
2024/01/15 06:55:28;;;;;;;35.20;20.00;;;;;;;-4.05;100.00;99987.16;106071;1251;60316;-80
2024/01/15 06:57:56;;;;;;;32.80;21.10;;;;;;;-3.99;100.00;99990.68;105915;1251;72996;-80
2024/01/15 07:00:22;;;;;;;39.30;21.90;;;;;;;-3.93;100.00;99991.81;105953;1251;62381;-80
2024/01/15 07:02:49;;;;;;;40.80;23.30;;;;;;;-3.88;100.00;99991.93;105872;1251;72654;-80
2024/01/15 07:05:16;;;;;;;37.20;21.40;;;;;;;-3.83;100.00;99988.81;105837;1255;61982;-79
2024/01/15 07:07:43;;;;;;;40.20;20.80;;;;;;;-3.78;100.00;99989.92;106720;1251;60633;-78
2024/01/15 07:10:10;;;;;;;33.90;20.20;;;;;;;-3.71;100.00;99989.68;107529;1253;73012;-78
2024/01/15 07:12:38;;;;;;;34.80;20.40;;;;;;;-3.66;100.00;99989.11;106108;1255;63815;-78
2024/01/15 07:15:07;;;;;;;37.10;21.70;;;;;;;-3.60;100.00;99987.66;105917;1255;73858;-81
2024/01/15 07:17:35;;;;;;;36.30;21.10;;;;;;;-3.53;100.00;99986.72;105997;1255;60307;-80
2024/01/15 07:20:03;;;;;;;32.50;19.00;;;;;;;-3.43;100.00;99988.48;106014;1255;60282;-80
2024/01/15 07:22:30;;;;;;;31.00;18.80;;;;;;;-3.34;100.00;99993.48;105919;1253;73113;-81
2024/01/15 07:24:57;;;;;;;30.60;18.40;;;;;;;-3.27;100.00;99985.89;105919;1256;63864;-81
2024/01/15 07:27:25;;;;;;;34.00;20.70;;;;;;;-3.22;100.00;99986.66;107672;1251;71151;-79
2024/01/15 07:29:52;;;;;;;32.40;20.40;;;;;;;-3.17;100.00;99985.90;106512;1251;59647;-79
2024/01/15 07:32:20;;;;;;;37.80;23.00;;;;;;;-3.10;100.00;99985.98;106035;1251;60410;-81
2024/01/15 07:34:49;;;;;;;33.90;19.80;;;;;;;-3.04;100.00;99987.27;105947;1251;71453;-80
2024/01/15 07:37:16;;;;;;;31.20;20.70;;;;;;;-3.01;100.00;99989.27;105981;1251;61829;-80
2024/01/15 07:39:43;;;;;;;36.90;20.50;;;;;;;-2.99;100.00;99983.77;105822;1251;72772;-79
2024/01/15 07:42:13;;;;;;;35.70;21.40;;;;;;;-2.95;100.00;99984.05;105765;1256;62119;-79
2024/01/15 07:44:40;;;;;;;35.70;20.50;;;;;;;-2.90;100.00;99989.27;105770;1255;60243;-79
2024/01/15 07:47:08;;;;;;;33.60;19.80;;;;;;;-2.82;100.00;99995.13;105773;1251;71560;-78
2024/01/15 07:49:35;;;;;;;33.70;18.80;;;;;;;-2.74;100.00;100002.02;105784;1251;62352;-79
2024/01/15 07:52:02;;;;;;;38.40;22.50;;;;;;;-2.68;100.00;99998.16;105853;1251;70744;-79
2024/01/15 07:54:30;;;;;;;38.00;21.70;;;;;;;-2.59;100.00;99994.27;105963;1255;62144;-79
2024/01/15 07:56:59;;;;;;;37.00;20.90;;;;;;;-2.48;100.00;99998.88;105868;1255;59654;-79
2024/01/15 07:59:26;;;;;;;38.60;20.30;;;;;;;-2.39;100.00;100001.80;105854;1256;72680;-79
2024/01/15 08:01:53;;;;;;;37.00;21.30;;;;;;;-2.30;100.00;100007.29;105861;1255;63811;-81
2024/01/15 08:04:21;;;;;;;37.50;20.70;;;;;;;-2.20;100.00;100007.96;105772;1251;71071;-80
2024/01/15 08:06:49;;;;;;;33.30;20.40;;;;;;;-2.09;100.00;100006.58;105871;1251;61141;-81
2024/01/15 08:09:16;;;;;;;32.50;20.30;;;;;;;-2.00;100.00;100004.19;105935;1253;61459;-79
2024/01/15 08:11:43;;;;;;;36.30;18.70;;;;;;;-1.90;100.00;100001.42;105852;1251;71519;-78
2024/01/15 08:14:10;;;;;;;35.90;19.70;;;;;;;-1.84;100.00;100008.52;105902;1251;62402;-80
2024/01/15 08:16:37;;;;;;;34.50;19.70;;;;;;;-1.87;100.00;100007.03;105937;1251;72748;-82
2024/01/15 08:19:05;;;;;;;37.50;20.90;;;;;;;-1.95;100.00;100009.75;105768;1251;59654;-81
2024/01/15 08:21:33;;;;;;;32.70;19.20;;;;;;;-2.04;100.00;100014.20;105775;1251;59644;-79
2024/01/15 08:24:00;;;;;;;33.80;20.50;;;;;;;-2.12;100.00;100016.57;105783;1255;73109;-81
2024/01/15 08:26:27;;;;;;;33.10;21.10;;;;;;;-2.18;100.00;100016.15;105779;1255;63795;-81
2024/01/15 08:28:54;;;;;;;37.60;21.30;;;;;;;-2.22;100.00;100008.52;105834;1251;72691;-82
2024/01/15 08:31:21;;;;;;;35.10;20.10;;;;;;;-2.25;100.00;100016.46;105907;1255;61241;-81
2024/01/15 08:33:48;;;;;;;31.20;18.60;;;;;;;-2.25;100.00;100013.36;105919;1251;60174;-80
2024/01/15 08:36:15;;;;;;;33.10;19.10;;;;;;;-2.24;100.00;100014.04;105865;1251;72858;-80
2024/01/15 08:38:42;;;;;;;30.80;18.10;;;;;;;-2.24;100.00;100014.04;105769;1255;63769;-80
2024/01/15 08:41:10;;;;;;;30.70;17.80;;;;;;;-2.23;100.00;100005.64;105794;1255;72658;-80
2024/01/15 08:43:36;;;;;;;28.50;17.60;;;;;;;-2.24;100.00;99997.77;105849;1251;60450;-80
2024/01/15 08:46:03;;;;;;;31.40;17.80;;;;;;;-2.22;100.00;99998.42;105941;1255;59675;-80
2024/01/15 08:48:32;;;;;;;30.70;18.50;;;;;;;-2.16;100.00;100001.75;105863;1251;73449;-81
2024/01/15 08:50:59;;;;;;;29.10;19.20;;;;;;;-2.09;100.00;100005.39;105930;1255;63991;-81
2024/01/15 08:53:27;;;;;;;34.10;20.30;;;;;;;-2.00;100.00;100005.73;105889;1251;71165;-80
2024/01/15 08:55:54;;;;;;;34.80;20.00;;;;;;;-1.90;100.00;100003.85;105982;1253;60611;-80
2024/01/15 08:58:23;;;;;;;30.60;18.50;;;;;;;-1.81;100.00;100002.14;105843;1251;60483;-81
2024/01/15 09:00:50;;;;;;;28.90;18.40;;;;;;;-1.76;100.00;100007.00;105919;1255;75401;-81
2024/01/15 09:03:17;;;;;;;33.20;19.30;;;;;;;-1.73;100.00;100008.81;106006;1252;65174;-81
2024/01/15 09:05:49;;;;;;;33.20;18.10;;;;;;;-1.70;100.00;99996.60;105898;1252;72519;-79
2024/01/15 09:08:17;;;;;;;33.10;18.10;;;;;;;-1.67;100.00;99994.47;105962;1255;60540;-80
2024/01/15 09:10:44;;;;;;;32.30;18.90;;;;;;;-1.63;100.00;99996.81;105905;1251;60465;-80
2024/01/15 09:13:10;;;;;;;29.30;18.20;;;;;;;-1.61;100.00;99995.21;105883;1252;74599;-81
2024/01/15 09:15:38;;;;;;;26.50;16.60;;;;;;;-1.57;100.00;99996.52;105899;1253;62380;-81
2024/01/15 09:18:05;;;;;;;30.70;19.00;;;;;;;-1.52;100.00;99998.12;105965;1251;71664;-81
2024/01/15 09:20:35;;;;;;;30.80;18.20;;;;;;;-1.45;100.00;99986.99;105904;1255;60604;-80
2024/01/15 09:23:03;;;;;;;32.20;18.10;;;;;;;-1.32;100.00;99984.15;106027;1251;60521;-79
2024/01/15 09:25:30;;;;;;;27.90;17.80;;;;;;;-1.12;100.00;99977.71;105860;1253;74167;-80
2024/01/15 09:27:57;;;;;;;31.40;19.20;;;;;;;-0.89;100.00;99978.55;105771;1255;64970;-79
2024/01/15 09:30:25;;;;;;;30.90;19.80;;;;;;;-0.64;100.00;99978.48;105764;1256;74325;-78
2024/01/15 09:32:52;;;;;;;32.90;19.90;;;;;;;-0.42;100.00;99977.92;105814;1255;60537;-80
2024/01/15 09:35:19;;;;;;;26.70;16.80;;;;;;;-0.20;100.00;99979.60;105964;1255;60442;-79
2024/01/15 09:37:50;;;;;;;29.80;19.30;;;;;;;-0.03;100.00;99973.66;105769;1252;73974;-78
2024/01/15 09:40:17;;;;;;;30.60;19.20;;;;;;;0.10;100.00;99974.34;105855;1251;65227;-79
2024/01/15 09:42:45;;;;;;;30.30;17.80;;;;;;;0.23;100.00;99973.98;105891;1256;73655;-80
2024/01/15 09:45:13;;;;;;;33.00;20.10;;;;;;;0.35;100.00;99978.46;106040;1255;60492;-81
2024/01/15 09:47:41;;;;;;;29.50;19.30;;;;;;;0.39;100.00;99974.19;105919;1256;60418;-78
2024/01/15 09:50:14;;;;;;;30.70;18.30;;;;;;;0.39;100.00;99976.62;105871;1251;73534;-80
2024/01/15 09:52:43;;;;;;;31.20;19.70;;;;;;;0.35;100.00;99976.04;105932;1251;63978;-78
2024/01/15 09:55:10;;;;;;;36.40;21.40;;;;;;;0.34;100.00;99968.02;105926;1255;71604;-79
2024/01/15 09:57:37;;;;;;;39.00;21.50;;;;;;;0.31;100.00;99965.15;105684;1256;60628;-80
2024/01/15 10:00:06;;;;;;;36.40;20.40;;;;;;;0.30;100.00;99960.36;105838;1253;60470;-78
2024/01/15 10:02:35;;;;;;;31.10;20.00;;;;;;;0.31;100.00;99952.44;105924;1253;73832;-79
2024/01/15 10:05:02;;;;;;;31.90;19.50;;;;;;;0.33;100.00;99955.81;105770;1251;64013;-81
2024/01/15 10:07:29;;;;;;;31.10;19.00;;;;;;;0.34;100.00;99951.84;105980;1253;71992;-79
2024/01/15 10:09:56;;;;;;;30.40;19.00;;;;;;;0.34;100.00;99949.77;105703;1253;60512;-82
2024/01/15 10:12:24;;;;;;;29.70;18.10;;;;;;;0.36;100.00;99946.79;105945;1252;60547;-79
2024/01/15 10:14:50;;;;;;;31.40;19.50;;;;;;;0.38;100.00;99946.57;105931;1252;73862;-78
2024/01/15 10:17:18;;;;;;;29.10;19.50;;;;;;;0.40;100.00;99948.89;106203;1253;63544;-78
2024/01/15 10:19:46;;;;;;;29.00;18.50;;;;;;;0.44;100.00;99946.57;106432;1255;71580;-80
2024/01/15 10:22:17;;;;;;;30.00;19.30;;;;;;;0.45;100.00;99951.69;105782;1253;60464;-79
2024/01/15 10:24:46;;;;;;;27.80;18.10;;;;;;;0.46;100.00;99952.84;105863;1255;60519;-77
2024/01/15 10:27:13;;;;;;;27.10;17.10;;;;;;;0.46;100.00;99956.98;105854;1254;74056;-78
2024/01/15 10:29:41;;;;;;;28.10;17.40;;;;;;;0.44;100.00;99960.34;105968;1251;63790;-79
2024/01/15 10:32:11;;;;;;;24.80;16.00;;;;;;;0.41;100.00;99949.73;105842;1255;72700;-81
2024/01/15 10:34:42;;;;;;;29.60;17.60;;;;;;;0.44;100.00;99951.55;105844;1252;60556;-79
2024/01/15 10:37:10;;;;;;;28.90;17.90;;;;;;;0.48;100.00;99944.20;105868;1251;60451;-77
2024/01/15 10:39:38;;;;;;;30.30;17.60;;;;;;;0.54;100.00;99940.23;105854;1255;73907;-79
2024/01/15 10:42:06;;;;;;;31.80;17.80;;;;;;;0.63;100.00;99933.96;105965;1251;62987;-77
2024/01/15 10:44:35;;;;;;;31.30;18.00;;;;;;;0.76;100.00;99924.08;105936;1255;73981;-78
2024/01/15 10:47:02;;;;;;;31.70;17.80;;;;;;;0.90;100.00;99932.46;105931;1253;60393;-82
2024/01/15 10:49:30;;;;;;;26.60;17.10;;;;;;;1.01;100.00;99939.33;106056;1251;61357;-79
2024/01/15 10:52:03;;;;;;;28.20;17.40;;;;;;;1.09;100.00;99940.80;106075;1251;72638;-78
2024/01/15 10:54:31;;;;;;;21.30;15.20;;;;;;;1.14;100.00;99938.37;107172;1255;65120;-80
2024/01/15 10:56:58;;;;;;;27.80;18.00;;;;;;;1.19;100.00;99938.05;106008;1255;73828;-80
2024/01/15 10:59:25;;;;;;;26.20;16.90;;;;;;;1.24;100.00;99936.00;106095;1253;60541;-80
2024/01/15 11:01:53;;;;;;;26.50;17.10;;;;;;;1.28;100.00;99934.52;105953;1251;60554;-79
2024/01/15 11:04:21;;;;;;;31.30;18.20;;;;;;;1.31;100.00;99929.05;105998;1251;73866;-82